Time;durP1;ratioP1;P1;durP2;ratioP2;P2;SDS_P1;SDS_P2;PMS_P1;PMS_P2;Temp;Humidity;BMP_temperature;BMP_pressure;BME280_temperature;BME280_humidity;BME280_pressure;Samples;Min_cycle;Max_cycle;Signal;HPM_P1;HPM_P2
2023/04/02 00:01:39;;;;;;;6.70;5.20;;;;;;;7.07;83.61;99494.10;102188;281;105464;-60
2023/04/02 00:04:25;;;;;;;9.50;6.00;;;;;;;7.04;83.72;99496.25;102212;281;114299;-60
2023/04/02 00:07:29;;;;;;;7.90;4.90;;;;;;;7.06;83.62;99496.92;102369;280;95539;-60
2023/04/02 00:10:30;;;;;;;9.00;6.00;;;;;;;7.07;83.60;99500.51;102366;280;96892;-59
2023/04/02 00:13:25;;;;;;;8.60;6.20;;;;;;;7.08;83.68;99505.63;102386;280;118734;-54
2023/04/02 00:16:06;;;;;;;8.50;6.90;;;;;;;7.03;83.85;99505.59;102387;280;106289;-55
2023/04/02 00:18:53;;;;;;;9.80;7.10;;;;;;;7.04;83.68;99508.27;102360;280;115113;-54
2023/04/02 00:21:31;;;;;;;9.40;6.60;;;;;;;7.02;83.76;99508.50;102328;280;97264;-60
2023/04/02 00:24:16;;;;;;;9.30;6.80;;;;;;;6.95;83.90;99508.00;102352;280;97502;-61
2023/04/02 00:26:56;;;;;;;9.40;7.20;;;;;;;6.93;83.97;99509.98;102335;280;118631;-58
2023/04/02 00:29:39;;;;;;;8.60;6.60;;;;;;;6.97;84.07;99513.07;102338;280;104977;-58
2023/04/02 00:32:21;;;;;;;10.50;7.60;;;;;;;6.98;84.07;99515.09;102348;280;114675;-58
2023/04/02 00:34:58;;;;;;;11.40;7.00;;;;;;;6.93;84.30;99517.35;102358;280;94612;-58
2023/04/02 00:37:41;;;;;;;10.70;7.50;;;;;;;6.95;84.36;99517.33;102274;280;96374;-57
2023/04/02 00:40:23;;;;;;;9.60;7.30;;;;;;;6.94;84.30;99521.99;102241;282;119095;-59
2023/04/02 00:43:03;;;;;;;8.70;7.30;;;;;;;6.92;84.26;99521.34;102201;281;104760;-58
2023/04/02 00:45:41;;;;;;;9.00;6.50;;;;;;;6.92;84.24;99521.35;102160;281;114703;-59
2023/04/02 00:48:45;;;;;;;9.00;6.70;;;;;;;6.91;84.30;99523.90;102149;270;94098;-55
2023/04/02 00:51:30;;;;;;;9.20;6.50;;;;;;;6.91;83.93;99523.69;102194;281;97354;-55
2023/04/02 00:54:14;;;;;;;9.20;6.00;;;;;;;6.87;84.00;99527.59;102190;281;118767;-55
2023/04/02 00:56:59;;;;;;;7.30;4.80;;;;;;;6.78;83.95;99528.30;102204;281;105728;-60
2023/04/02 00:59:52;;;;;;;8.50;5.70;;;;;;;6.71;83.99;99532.46;102157;281;114794;-59
2023/04/02 01:02:32;;;;;;;7.50;5.10;;;;;;;6.71;83.78;99534.94;102202;281;96821;-58
2023/04/02 01:05:23;;;;;;;7.40;5.50;;;;;;;6.72;83.86;99532.98;102157;281;98848;-58
2023/04/02 01:08:14;;;;;;;6.60;4.90;;;;;;;6.74;83.76;99531.69;102208;281;117625;-60
2023/04/02 01:11:12;;;;;;;6.10;4.60;;;;;;;6.74;83.74;99537.78;102219;281;105616;-61
2023/04/02 01:13:59;;;;;;;5.60;4.20;;;;;;;6.66;83.65;99540.96;102179;281;114652;-60
2023/04/02 01:16:49;;;;;;;6.60;5.00;;;;;;;6.59;83.60;99537.65;102144;281;95801;-55
2023/04/02 01:20:00;;;;;;;6.00;4.80;;;;;;;6.53;83.50;99540.64;102220;270;97722;-55
2023/04/02 01:22:46;;;;;;;5.80;4.30;;;;;;;6.56;83.50;99544.27;102157;282;117608;-60
2023/04/02 01:25:32;;;;;;;5.90;4.30;;;;;;;6.56;83.60;99548.79;102172;281;105508;-60
2023/04/02 01:28:18;;;;;;;6.50;4.30;;;;;;;6.57;83.63;99549.55;102166;281;114920;-59
2023/04/02 01:30:58;;;;;;;5.50;4.00;;;;;;;6.58;83.53;99553.19;102192;282;93297;-58
2023/04/02 01:33:35;;;;;;;5.00;4.20;;;;;;;6.59;83.40;99556.47;102205;281;96525;-54
2023/04/02 01:36:18;;;;;;;5.80;4.40;;;;;;;6.55;83.18;99555.98;102203;281;119653;-54
2023/04/02 01:39:04;;;;;;;5.90;3.90;;;;;;;6.52;83.25;99555.61;102173;281;104825;-54
2023/04/02 01:41:46;;;;;;;5.20;3.80;;;;;;;6.52;83.41;99557.17;102224;281;114257;-59
2023/04/02 01:44:34;;;;;;;5.20;3.40;;;;;;;6.51;83.35;99564.54;102201;281;94655;-59
2023/04/02 01:47:19;;;;;;;5.00;4.10;;;;;;;6.50;83.30;99566.46;102203;282;95141;-54
2023/04/02 01:50:05;;;;;;;5.90;3.80;;;;;;;6.51;83.25;99569.45;102196;281;118132;-53
2023/04/02 01:52:50;;;;;;;4.40;3.60;;;;;;;6.51;83.14;99570.73;102190;281;105643;-58
2023/04/02 01:55:40;;;;;;;4.80;3.80;;;;;;;6.46;83.20;99577.63;102146;281;114444;-57
2023/04/02 01:58:23;;;;;;;5.80;3.80;;;;;;;6.43;83.26;99581.24;102173;281;96730;-55
2023/04/02 02:01:08;;;;;;;5.10;4.30;;;;;;;6.42;83.28;99585.13;102199;281;98203;-59
2023/04/02 02:03:46;;;;;;;5.20;4.00;;;;;;;6.39;83.29;99585.65;102202;281;118327;-55
2023/04/02 02:06:31;;;;;;;5.20;4.50;;;;;;;6.39;83.27;99587.89;102215;281;105813;-54
2023/04/02 02:09:12;;;;;;;5.00;4.00;;;;;;;6.44;83.19;99590.77;102164;281;113346;-55
2023/04/02 02:11:52;;;;;;;5.30;4.00;;;;;;;6.42;83.27;99594.40;102198;281;96018;-55
2023/04/02 02:14:31;;;;;;;7.60;5.20;;;;;;;6.38;83.41;99599.91;102188;281;96679;-55
2023/04/02 02:17:14;;;;;;;5.40;4.20;;;;;;;6.36;83.27;99600.46;102160;281;119471;-55
2023/04/02 02:19:53;;;;;;;6.50;4.80;;;;;;;6.38;83.24;99601.85;102189;281;105916;-55
2023/04/02 02:22:32;;;;;;;5.10;4.50;;;;;;;6.37;83.36;99607.52;102214;281;113758;-58
2023/04/02 02:25:15;;;;;;;5.40;4.60;;;;;;;6.41;83.32;99610.41;102193;281;94166;-58
2023/04/02 02:28:10;;;;;;;5.40;4.40;;;;;;;6.41;83.25;99609.84;102174;281;98071;-54
2023/04/02 02:30:53;;;;;;;6.80;4.40;;;;;;;6.39;83.33;99609.55;102175;281;119817;-55
2023/04/02 02:33:32;;;;;;;7.80;5.30;;;;;;;6.37;83.28;99612.23;102154;282;105856;-55
2023/04/02 02:36:17;;;;;;;5.60;4.40;;;;;;;6.36;83.22;99613.73;102180;281;113473;-55
2023/04/02 02:39:02;;;;;;;7.00;5.20;;;;;;;6.38;83.25;99614.06;102221;281;94747;-56
2023/04/02 02:41:44;;;;;;;7.70;5.80;;;;;;;6.40;83.33;99615.34;102204;281;97831;-54
2023/04/02 02:44:25;;;;;;;6.50;5.10;;;;;;;6.35;83.40;99616.37;102139;281;120075;-54
2023/04/02 02:47:10;;;;;;;6.20;5.10;;;;;;;6.30;83.41;99616.13;102171;281;107029;-56
2023/04/02 02:49:53;;;;;;;7.00;5.10;;;;;;;6.28;83.54;99616.09;102132;281;114649;-55
2023/04/02 02:52:37;;;;;;;8.20;6.20;;;;;;;6.24;83.56;99621.76;102203;282;97011;-61
2023/04/02 02:55:16;;;;;;;7.70;5.80;;;;;;;6.26;83.60;99624.80;102202;281;97327;-60
2023/04/02 02:58:01;;;;;;;7.90;6.40;;;;;;;6.29;83.72;99627.21;102179;281;121234;-55
2023/04/02 03:00:40;;;;;;;7.90;6.90;;;;;;;6.29;83.79;99631.91;102189;274;106136;-54
2023/04/02 03:03:21;;;;;;;9.80;7.30;;;;;;;6.27;83.88;99634.23;102161;281;114101;-59
2023/04/02 03:06:04;;;;;;;9.60;7.20;;;;;;;6.28;83.96;99637.95;102187;281;95757;-58
2023/04/02 03:08:45;;;;;;;9.10;6.80;;;;;;;6.23;83.88;99637.44;102177;282;98063;-59
2023/04/02 03:11:36;;;;;;;10.00;7.00;;;;;;;6.22;84.06;99642.90;102200;281;120707;-56
2023/04/02 03:14:23;;;;;;;9.30;7.00;;;;;;;6.25;84.01;99645.92;102225;281;106007;-54
2023/04/02 03:17:07;;;;;;;8.60;6.60;;;;;;;6.26;84.20;99646.25;102177;281;114257;-59
2023/04/02 03:19:49;;;;;;;9.80;6.80;;;;;;;6.28;84.23;99648.55;102346;279;94316;-58
2023/04/02 03:22:36;;;;;;;9.90;7.80;;;;;;;6.25;84.11;99657.18;102365;279;98379;-60
2023/04/02 03:25:29;;;;;;;9.70;7.70;;;;;;;6.24;84.26;99654.81;102359;279;119664;-60
2023/04/02 03:28:08;;;;;;;11.10;7.90;;;;;;;6.20;84.38;99662.16;102383;279;105960;-55
2023/04/02 03:30:49;;;;;;;11.20;8.00;;;;;;;6.20;84.37;99667.35;102389;279;113345;-55
2023/04/02 03:33:32;;;;;;;11.40;7.40;;;;;;;6.14;84.46;99667.43;102348;280;97108;-55
2023/04/02 03:36:27;;;;;;;11.60;8.70;;;;;;;6.18;84.54;99670.67;102388;280;97341;-54
2023/04/02 03:39:15;;;;;;;12.10;9.50;;;;;;;6.20;84.66;99677.88;102368;280;120890;-54
2023/04/02 03:42:00;;;;;;;10.80;8.50;;;;;;;6.21;84.80;99684.41;102366;279;104425;-55
2023/04/02 03:44:51;;;;;;;12.40;9.40;;;;;;;6.22;84.91;99688.77;102351;280;115208;-52
2023/04/02 03:47:35;;;;;;;16.30;10.10;;;;;;;6.23;84.90;99694.29;102421;280;96751;-54
2023/04/02 03:50:21;;;;;;;13.20;9.40;;;;;;;6.21;84.86;99698.88;102393;279;97225;-53
2023/04/02 03:53:02;;;;;;;12.30;9.60;;;;;;;6.25;84.75;99704.45;102383;279;119388;-54
2023/04/02 03:55:41;;;;;;;14.20;9.90;;;;;;;6.22;84.77;99707.09;102354;279;105269;-53
2023/04/02 03:58:26;;;;;;;12.40;9.30;;;;;;;6.14;84.78;99709.83;102405;279;114697;-57
2023/04/02 04:01:12;;;;;;;13.30;9.70;;;;;;;6.10;84.75;99715.16;102404;279;94488;-57
2023/04/02 04:03:54;;;;;;;14.30;10.20;;;;;;;6.09;84.76;99716.40;102429;279;96548;-59
2023/04/02 04:06:38;;;;;;;11.90;9.20;;;;;;;6.09;84.61;99721.33;102408;279;119069;-53
2023/04/02 04:09:24;;;;;;;12.90;9.80;;;;;;;6.06;84.48;99720.77;102408;279;107418;-54
2023/04/02 04:12:12;;;;;;;12.60;9.40;;;;;;;6.02;84.50;99720.15;102396;279;114660;-59
2023/04/02 04:14:57;;;;;;;13.00;9.30;;;;;;;5.98;84.58;99728.60;102361;279;96076;-58
2023/04/02 04:17:50;;;;;;;13.60;9.70;;;;;;;5.92;84.71;99730.44;102380;279;97516;-60
2023/04/02 04:20:38;;;;;;;13.20;9.00;;;;;;;5.92;84.73;99739.39;102433;279;120419;-60
2023/04/02 04:23:28;;;;;;;11.00;8.40;;;;;;;5.90;84.55;99739.92;102436;279;106193;-60
2023/04/02 04:26:20;;;;;;;13.80;9.20;;;;;;;5.90;84.49;99746.31;102368;280;112732;-55
2023/04/02 04:29:06;;;;;;;12.80;9.40;;;;;;;5.89;84.32;99749.80;102377;279;94093;-54
2023/04/02 04:31:49;;;;;;;12.50;8.90;;;;;;;5.85;84.39;99753.11;102423;279;97850;-60
2023/04/02 04:34:30;;;;;;;14.70;10.60;;;;;;;5.85;84.41;99757.67;102384;279;118811;-59
2023/04/02 04:37:24;;;;;;;15.60;11.00;;;;;;;5.86;84.40;99758.71;102437;279;105087;-55
2023/04/02 04:40:10;;;;;;;14.20;10.50;;;;;;;5.82;84.35;99762.33;102352;279;114190;-56
2023/04/02 04:42:55;;;;;;;13.70;10.40;;;;;;;5.80;84.28;99764.54;102428;279;94103;-52
2023/04/02 04:45:43;;;;;;;10.60;8.00;;;;;;;5.81;84.22;99771.77;102255;269;98190;-53
2023/04/02 04:48:26;;;;;;;13.90;9.70;;;;;;;5.80;84.11;99775.77;102389;279;120353;-55
2023/04/02 04:51:08;;;;;;;15.00;10.00;;;;;;;5.78;84.12;99783.20;102381;279;104567;-58
2023/04/02 04:53:50;;;;;;;18.10;12.10;;;;;;;5.76;84.30;99789.08;102351;279;114684;-59
2023/04/02 04:56:34;;;;;;;20.70;13.50;;;;;;;5.73;84.32;99791.20;102363;279;95119;-53
2023/04/02 04:59:24;;;;;;;20.10;13.70;;;;;;;5.72;84.39;99792.65;102373;279;97422;-54
2023/04/02 05:02:12;;;;;;;18.70;14.20;;;;;;;5.71;84.48;99799.10;102378;279;120162;-59
2023/04/02 05:05:02;;;;;;;19.40;13.00;;;;;;;5.68;84.61;99808.27;102331;279;105386;-54
2023/04/02 05:07:51;;;;;;;20.00;14.80;;;;;;;5.64;84.68;99808.59;102358;279;113444;-59
2023/04/02 05:10:37;;;;;;;17.80;12.50;;;;;;;5.62;84.58;99809.66;102344;279;97199;-60
2023/04/02 05:13:21;;;;;;;20.00;13.50;;;;;;;5.61;84.65;99811.55;102363;279;97146;-55
2023/04/02 05:16:10;;;;;;;19.00;13.30;;;;;;;5.63;84.54;99815.95;102347;280;118969;-55
2023/04/02 05:18:58;;;;;;;20.00;13.90;;;;;;;5.63;84.70;99817.63;102343;279;105341;-54
2023/04/02 05:21:52;;;;;;;22.70;14.40;;;;;;;5.61;84.58;99826.07;102360;280;115018;-55
2023/04/02 05:25:02;;;;;;;20.10;13.00;;;;;;;5.60;84.59;99829.03;102365;280;94762;-54
2023/04/02 05:27:48;;;;;;;20.40;14.30;;;;;;;5.58;84.46;99831.58;102347;280;97254;-54
2023/04/02 05:30:45;;;;;;;18.90;13.10;;;;;;;5.59;84.37;99835.02;102349;279;119811;-54
2023/04/02 05:33:27;;;;;;;19.20;12.80;;;;;;;5.64;84.34;99842.34;102397;272;104098;-59
2023/04/02 05:36:08;;;;;;;19.90;13.60;;;;;;;5.59;84.40;99847.75;102379;280;114581;-59
2023/04/02 05:38:50;;;;;;;21.30;14.50;;;;;;;5.54;84.38;99854.92;102377;280;94759;-60
2023/04/02 05:41:35;;;;;;;21.20;14.90;;;;;;;5.51;84.35;99855.20;102396;280;97121;-61
2023/04/02 05:44:24;;;;;;;18.90;13.40;;;;;;;5.50;84.36;99854.10;102389;280;119806;-61
2023/04/02 05:47:12;;;;;;;21.60;14.00;;;;;;;5.46;84.19;99854.13;102385;280;104923;-59
2023/04/02 05:49:59;;;;;;;19.30;13.30;;;;;;;5.47;84.04;99859.38;102393;278;114821;-59
2023/04/02 05:52:40;;;;;;;16.30;10.90;;;;;;;5.51;83.98;99861.23;102368;280;95565;-59
2023/04/02 05:55:40;;;;;;;16.50;11.50;;;;;;;5.45;83.98;99867.15;101975;279;98758;-60
2023/04/02 05:58:34;;;;;;;17.00;11.90;;;;;;;5.42;83.84;99871.56;102376;279;118422;-54
2023/04/02 06:01:25;;;;;;;18.40;12.00;;;;;;;5.46;83.60;99872.39;102358;280;105030;-54
2023/04/02 06:04:10;;;;;;;18.20;12.60;;;;;;;5.42;83.60;99879.66;102357;279;115240;-55
2023/04/02 06:06:59;;;;;;;15.10;10.80;;;;;;;5.34;83.57;99881.23;102354;280;95542;-56
2023/04/02 06:09:43;;;;;;;12.70;9.00;;;;;;;5.30;83.57;99885.12;102349;280;98347;-55
2023/04/02 06:12:34;;;;;;;14.10;9.20;;;;;;;5.24;83.47;99894.93;102353;279;119617;-55
2023/04/02 06:15:15;;;;;;;13.20;9.50;;;;;;;5.24;83.50;99899.92;102396;280;104367;-53
2023/04/02 06:18:05;;;;;;;13.10;9.20;;;;;;;5.28;83.46;99905.54;102344;279;114045;-59
2023/04/02 06:20:48;;;;;;;11.70;7.70;;;;;;;5.24;83.40;99907.65;102386;279;95705;-58
2023/04/02 06:23:29;;;;;;;10.60;8.00;;;;;;;5.25;83.19;99913.02;102353;283;98046;-55
2023/04/02 06:26:13;;;;;;;10.70;7.90;;;;;;;5.24;83.11;99915.14;102377;279;120025;-55
2023/04/02 06:28:58;;;;;;;9.50;7.30;;;;;;;5.17;83.02;99912.83;102351;279;104008;-54
2023/04/02 06:31:43;;;;;;;9.70;7.60;;;;;;;5.16;83.22;99923.02;102363;279;115051;-55
2023/04/02 06:34:28;;;;;;;10.20;7.50;;;;;;;5.22;83.08;99925.76;102347;279;93221;-55
2023/04/02 06:37:18;;;;;;;10.50;7.40;;;;;;;5.22;83.11;99926.91;102323;280;98231;-59
2023/04/02 06:39:55;;;;;;;10.50;7.80;;;;;;;5.15;83.05;99929.14;102394;280;119055;-60
2023/04/02 06:42:36;;;;;;;11.10;7.30;;;;;;;5.08;83.09;99938.86;102374;280;104915;-59
2023/04/02 06:45:26;;;;;;;11.40;7.50;;;;;;;5.14;83.06;99941.21;102298;279;115329;-58
2023/04/02 06:48:08;;;;;;;10.00;7.50;;;;;;;5.17;83.05;99946.60;102345;279;94162;-54
2023/04/02 06:50:54;;;;;;;9.60;7.60;;;;;;;5.21;83.02;99947.06;102400;279;98397;-55
2023/04/02 06:53:40;;;;;;;9.60;7.10;;;;;;;5.22;83.03;99947.98;102318;279;119903;-60
2023/04/02 06:56:36;;;;;;;10.70;7.70;;;;;;;5.25;82.99;99951.84;102394;280;106014;-54
2023/04/02 06:59:16;;;;;;;10.90;7.20;;;;;;;5.29;82.91;99959.52;102343;279;114539;-54
2023/04/02 07:01:58;;;;;;;10.10;7.10;;;;;;;5.21;82.97;99965.98;102344;279;95186;-54
2023/04/02 07:04:34;;;;;;;10.10;7.40;;;;;;;5.12;83.11;99964.44;102403;280;97926;-54
2023/04/02 07:07:11;;;;;;;8.70;7.00;;;;;;;5.15;83.07;99968.09;102447;280;119698;-58
2023/04/02 07:09:48;;;;;;;10.10;7.30;;;;;;;5.03;83.09;99970.44;102353;279;105437;-59
2023/04/02 07:12:26;;;;;;;9.20;6.90;;;;;;;5.00;83.26;99970.07;102392;280;114309;-58
2023/04/02 07:15:03;;;;;;;9.80;7.60;;;;;;;5.01;83.25;99971.05;102366;279;96590;-59
2023/04/02 07:17:42;;;;;;;9.10;6.70;;;;;;;5.05;83.27;99978.84;102427;279;96306;-54
2023/04/02 07:20:30;;;;;;;9.40;7.80;;;;;;;5.05;83.38;99978.63;102337;279;120111;-54
2023/04/02 07:23:06;;;;;;;10.50;7.80;;;;;;;5.11;83.28;99978.35;102382;279;105288;-54
2023/04/02 07:25:48;;;;;;;10.70;7.20;;;;;;;5.19;83.41;99983.72;102393;279;113620;-54
2023/04/02 07:28:31;;;;;;;10.70;8.20;;;;;;;5.18;83.46;99989.56;102404;280;94145;-54
2023/04/02 07:31:17;;;;;;;9.80;7.10;;;;;;;5.18;83.49;99994.52;102437;279;96790;-55
2023/04/02 07:33:59;;;;;;;9.20;6.10;;;;;;;5.15;83.52;99996.07;102370;280;120128;-58
2023/04/02 07:36:43;;;;;;;10.50;7.20;;;;;;;5.13;83.51;100000.38;102370;280;104445;-54
2023/04/02 07:39:21;;;;;;;10.70;7.50;;;;;;;5.16;83.43;100001.92;102350;280;114168;-55
2023/04/02 07:42:01;;;;;;;9.50;6.90;;;;;;;5.18;83.57;100006.88;102377;279;94271;-57
2023/04/02 07:44:38;;;;;;;10.80;7.20;;;;;;;5.20;83.68;100012.80;102600;278;97232;-58
2023/04/02 07:47:14;;;;;;;10.70;8.00;;;;;;;5.17;83.87;100016.75;102602;278;119968;-53
2023/04/02 07:49:54;;;;;;;10.90;7.10;;;;;;;5.21;83.82;100020.98;102546;278;102849;-54
2023/04/02 07:52:35;;;;;;;9.10;6.80;;;;;;;5.21;83.70;100023.80;102457;278;112869;-55
2023/04/02 07:55:16;;;;;;;8.60;6.80;;;;;;;5.22;83.91;100024.29;102556;278;95206;-55
2023/04/02 07:57:56;;;;;;;10.20;6.80;;;;;;;5.23;83.73;100028.18;102544;277;97319;-57
2023/04/02 08:00:37;;;;;;;9.30;7.30;;;;;;;5.22;83.61;100025.67;102567;278;119116;-57
2023/04/02 08:03:15;;;;;;;10.50;7.30;;;;;;;5.16;83.69;100026.27;102569;278;106242;-54
2023/04/02 08:05:58;;;;;;;9.70;7.00;;;;;;;5.12;83.75;100032.47;102527;278;114261;-54
2023/04/02 08:08:39;;;;;;;10.70;7.90;;;;;;;5.06;83.85;100042.56;102582;267;95744;-54
2023/04/02 08:11:22;;;;;;;10.80;7.40;;;;;;;5.06;83.89;100045.67;102553;278;98457;-58
2023/04/02 08:14:05;;;;;;;10.50;7.80;;;;;;;5.05;83.86;100051.75;102548;278;119160;-57
2023/04/02 08:16:56;;;;;;;9.50;7.50;;;;;;;5.05;83.77;100058.19;102560;278;105412;-58
2023/04/02 08:19:40;;;;;;;10.70;7.70;;;;;;;5.10;83.91;100055.50;102582;278;112297;-58
2023/04/02 08:22:16;;;;;;;10.60;7.60;;;;;;;5.15;83.96;100060.96;102579;278;94750;-53
2023/04/02 08:25:01;;;;;;;9.80;7.60;;;;;;;5.17;84.12;100064.92;102546;278;97150;-53
2023/04/02 08:27:37;;;;;;;10.00;7.60;;;;;;;5.12;83.95;100065.50;102527;278;119419;-57
2023/04/02 08:30:14;;;;;;;9.80;7.10;;;;;;;5.14;83.92;100064.02;102529;278;105764;-57
2023/04/02 08:32:51;;;;;;;9.60;7.10;;;;;;;5.15;83.75;100065.20;102566;278;113764;-60
2023/04/02 08:35:29;;;;;;;9.20;7.40;;;;;;;5.17;83.75;100072.62;102513;278;95015;-59
2023/04/02 08:38:14;;;;;;;8.70;6.90;;;;;;;5.17;83.81;100084.02;102562;278;97669;-56
2023/04/02 08:41:02;;;;;;;10.40;7.40;;;;;;;5.19;83.79;100093.50;102481;277;119799;-53
2023/04/02 08:44:06;;;;;;;9.10;7.40;;;;;;;5.19;83.70;100097.59;102511;278;106387;-59
2023/04/02 08:46:50;;;;;;;8.00;6.40;;;;;;;5.16;83.73;100104.67;102567;266;113550;-56
2023/04/02 08:49:33;;;;;;;7.50;6.30;;;;;;;5.09;83.68;100106.55;102515;278;95045;-56
2023/04/02 08:52:20;;;;;;;8.70;6.10;;;;;;;5.07;83.77;100109.09;102512;278;96487;-58
2023/04/02 08:55:01;;;;;;;8.80;5.90;;;;;;;5.10;83.83;100108.90;102502;278;117647;-60
2023/04/02 08:57:49;;;;;;;7.90;6.10;;;;;;;5.15;83.63;100113.16;102512;278;102770;-60
2023/04/02 09:00:40;;;;;;;7.90;6.00;;;;;;;5.13;83.78;100113.92;102509;278;114974;-57
2023/04/02 09:03:21;;;;;;;8.30;6.30;;;;;;;5.12;83.74;100119.92;102512;278;93935;-58
2023/04/02 09:06:02;;;;;;;8.50;6.30;;;;;;;5.17;83.57;100122.05;102522;278;98076;-57
2023/04/02 09:08:43;;;;;;;7.60;6.00;;;;;;;5.16;83.51;100121.77;102434;279;118328;-54
2023/04/02 09:11:34;;;;;;;9.00;6.00;;;;;;;5.19;83.35;100130.41;102525;278;104764;-53
2023/04/02 09:14:18;;;;;;;7.10;5.20;;;;;;;5.20;83.41;100127.61;102529;278;114061;-55
2023/04/02 09:17:02;;;;;;;6.10;4.60;;;;;;;5.16;83.40;100129.13;102485;278;96709;-54
2023/04/02 09:19:54;;;;;;;7.10;5.00;;;;;;;5.17;83.29;100137.09;102532;277;97621;-55
2023/04/02 09:22:37;;;;;;;6.30;4.70;;;;;;;5.23;83.45;100133.95;102524;278;118137;-54
2023/04/02 09:25:18;;;;;;;5.60;4.30;;;;;;;5.26;83.44;100142.33;102497;278;105621;-55
2023/04/02 09:27:56;;;;;;;5.20;4.70;;;;;;;5.31;83.30;100141.58;102491;278;113743;-60
2023/04/02 09:30:57;;;;;;;5.70;4.50;;;;;;;5.30;83.30;100145.99;102475;278;95762;-60
2023/04/02 09:33:49;;;;;;;5.60;3.90;;;;;;;5.27;83.40;100149.73;102497;278;97459;-56
2023/04/02 09:36:35;;;;;;;5.10;4.20;;;;;;;5.26;83.39;100149.89;102527;278;117575;-61
2023/04/02 09:39:22;;;;;;;4.80;4.20;;;;;;;5.31;83.34;100147.73;102512;278;104971;-59
2023/04/02 09:42:05;;;;;;;7.00;4.60;;;;;;;5.30;83.47;100146.93;102504;278;114335;-60
2023/04/02 09:44:46;;;;;;;4.90;4.20;;;;;;;5.38;83.55;100146.63;102519;278;93978;-59
2023/04/02 09:47:35;;;;;;;5.80;4.30;;;;;;;5.50;83.57;100146.77;102555;278;97922;-59
2023/04/02 09:50:34;;;;;;;5.60;3.50;;;;;;;5.53;83.39;100149.98;102509;278;119047;-59
2023/04/02 09:53:40;;;;;;;4.10;3.30;;;;;;;5.57;83.32;100150.87;102522;278;103576;-62
2023/04/02 09:56:20;;;;;;;5.60;3.60;;;;;;;5.63;83.28;100151.86;102517;278;114616;-56
2023/04/02 09:59:18;;;;;;;5.70;3.60;;;;;;;5.67;83.38;100155.61;102491;278;94651;-55
2023/04/02 10:02:02;;;;;;;4.90;3.70;;;;;;;5.66;83.57;100167.70;102547;278;98752;-56
2023/04/02 10:04:45;;;;;;;4.50;3.50;;;;;;;5.62;83.32;100169.04;102518;278;117453;-56
2023/04/02 10:10:31;;;;;;;5.00;3.50;;;;;;;5.48;83.63;100178.63;100390;307;619425;-61
2023/04/02 10:13:22;;;;;;;8.10;3.40;;;;;;;5.42;83.64;100183.23;101637;290;95621;-55
2023/04/02 10:16:07;;;;;;;4.50;3.40;;;;;;;5.36;83.75;100185.39;101641;289;98567;-59
2023/04/02 10:18:54;;;;;;;5.40;3.70;;;;;;;5.40;83.90;100190.19;101799;287;116551;-56
2023/04/02 10:21:43;;;;;;;5.50;3.70;;;;;;;5.48;83.97;100194.55;101755;287;104403;-56
2023/04/02 10:24:23;;;;;;;5.80;4.10;;;;;;;5.54;84.25;100196.41;101471;285;567061;-55
2023/04/02 10:27:16;;;;;;;5.40;3.90;;;;;;;5.57;84.12;100200.54;101989;284;95342;-60
2023/04/02 10:30:17;;;;;;;6.60;4.10;;;;;;;5.51;83.93;100208.25;101981;284;98174;-60
2023/04/02 10:33:02;;;;;;;5.00;3.50;;;;;;;5.42;84.02;100211.76;101981;284;118338;-55
2023/04/02 10:35:55;;;;;;;5.10;3.80;;;;;;;5.30;84.09;100208.54;102006;284;105018;-55
2023/04/02 10:38:41;;;;;;;4.70;3.50;;;;;;;5.26;84.20;100212.72;101980;284;114371;-56
2023/04/02 10:41:41;;;;;;;5.50;3.70;;;;;;;5.23;84.35;100219.23;101981;284;94671;-56
2023/04/02 10:44:43;;;;;;;6.10;4.30;;;;;;;5.20;84.43;100222.77;102286;281;98344;-55
2023/04/02 10:47:38;;;;;;;5.10;3.60;;;;;;;5.24;84.54;100228.27;102281;280;119362;-60
2023/04/02 10:50:35;;;;;;;4.50;3.90;;;;;;;5.18;84.51;100231.70;102320;281;105249;-58
2023/04/02 10:53:17;;;;;;;5.50;4.60;;;;;;;5.11;84.61;100237.17;102280;280;114138;-60
2023/04/02 10:56:00;;;;;;;6.90;4.50;;;;;;;5.14;84.68;100239.67;102257;280;93644;-59
2023/04/02 10:58:51;;;;;;;6.60;4.90;;;;;;;5.16;84.61;100247.29;102298;281;98072;-58
2023/04/02 11:01:31;;;;;;;6.60;4.90;;;;;;;5.14;84.76;100251.21;102277;280;117621;-55
2023/04/02 11:04:17;;;;;;;6.00;4.70;;;;;;;5.08;84.68;100253.49;102273;281;105763;-55
2023/04/02 11:07:01;;;;;;;6.50;5.20;;;;;;;5.08;84.75;100258.20;102219;281;114193;-53
2023/04/02 11:09:49;;;;;;;7.00;5.10;;;;;;;5.08;84.86;100267.04;102239;281;96166;-53
2023/04/02 11:12:41;;;;;;;7.70;5.70;;;;;;;5.11;84.87;100273.92;102259;281;97070;-58
2023/04/02 11:15:22;;;;;;;8.20;6.00;;;;;;;5.07;84.80;100277.88;102218;281;117739;-58
2023/04/02 11:17:57;;;;;;;8.70;6.10;;;;;;;5.06;84.94;100277.13;102249;281;105707;-54
2023/04/02 11:21:00;;;;;;;8.40;6.50;;;;;;;5.10;84.77;100279.02;102209;281;114101;-55
2023/04/02 11:23:56;;;;;;;10.60;7.70;;;;;;;5.05;84.95;100281.11;102191;281;95894;-58
2023/04/02 11:26:46;;;;;;;8.00;6.40;;;;;;;5.05;84.99;100283.93;102186;282;96661;-58
2023/04/02 11:29:31;;;;;;;8.80;7.00;;;;;;;5.05;85.05;100290.22;102181;282;119295;-58
2023/04/02 11:32:38;;;;;;;8.40;5.90;;;;;;;5.03;85.10;100299.73;102194;282;105049;-53
2023/04/02 11:35:41;;;;;;;9.40;7.10;;;;;;;5.07;84.91;100303.38;102204;270;113528;-58
2023/04/02 11:38:55;;;;;;;9.90;7.70;;;;;;;5.16;85.05;100311.20;102113;282;94960;-54
2023/04/02 11:42:10;;;;;;;10.40;7.60;;;;;;;5.28;85.04;100316.71;102253;282;98095;-54
2023/04/02 11:44:46;;;;;;;;;;;;;;;5.37;85.02;100312.80;102193;282;118721;-54
2023/04/02 11:47:24;;;;;;;9.40;6.80;;;;;;;5.37;85.00;100317.44;102167;282;104382;-58
2023/04/02 11:50:27;;;;;;;11.10;7.90;;;;;;;5.38;85.13;100315.95;102167;282;113143;-58
2023/04/02 11:53:17;;;;;;;10.50;7.90;;;;;;;5.39;85.13;100317.22;102217;282;96631;-55
2023/04/02 11:56:18;;;;;;;8.30;6.70;;;;;;;5.43;85.18;100318.03;102213;282;96780;-54
2023/04/02 11:59:18;;;;;;;7.90;6.40;;;;;;;5.41;85.08;100326.33;102255;282;119157;-53
2023/04/02 12:02:23;;;;;;;7.60;6.50;;;;;;;5.44;85.00;100329.23;102195;281;103517;-56
2023/04/02 12:05:18;;;;;;;8.10;6.00;;;;;;;5.45;84.96;100333.99;102187;281;114874;-54
2023/04/02 12:08:22;;;;;;;8.90;7.40;;;;;;;5.35;84.81;100341.50;102196;281;96021;-55
2023/04/02 12:11:02;;;;;;;8.60;7.00;;;;;;;5.38;84.91;100340.71;102155;282;98357;-55
2023/04/02 12:13:57;;;;;;;8.80;7.10;;;;;;;5.39;84.87;100347.92;102157;282;116919;-54
2023/04/02 12:16:35;;;;;;;9.00;7.00;;;;;;;5.36;84.93;100346.80;102165;282;104644;-55
2023/04/02 12:19:17;;;;;;;10.30;8.10;;;;;;;5.32;85.10;100349.69;102133;271;114306;-55
2023/04/02 12:21:55;;;;;;;11.10;7.90;;;;;;;5.31;85.07;100355.30;102128;282;94798;-58
2023/04/02 12:24:32;;;;;;;9.80;7.50;;;;;;;5.31;85.04;100359.29;102147;282;98377;-58
2023/04/02 12:27:23;;;;;;;9.10;7.30;;;;;;;5.28;85.12;100360.13;102154;282;118833;-59
2023/04/02 12:30:14;;;;;;;9.40;6.80;;;;;;;5.23;85.15;100363.16;102150;282;106115;-60
2023/04/02 12:32:49;;;;;;;8.60;6.80;;;;;;;5.23;85.25;100364.25;102174;282;113397;-54
2023/04/02 12:35:36;;;;;;;8.00;6.20;;;;;;;5.25;85.17;100368.66;102165;282;91846;-54
2023/04/02 12:38:23;;;;;;;9.50;6.80;;;;;;;5.20;85.01;100369.77;102159;282;98255;-54
2023/04/02 12:41:04;;;;;;;8.50;6.50;;;;;;;5.19;84.96;100369.06;102177;282;116703;-58
2023/04/02 12:43:43;;;;;;;7.70;5.60;;;;;;;5.19;84.93;100369.50;102162;282;105351;-59
2023/04/02 12:46:24;;;;;;;5.90;5.00;;;;;;;5.20;84.90;100368.05;102221;282;114261;-57
2023/04/02 12:49:14;;;;;;;6.70;6.00;;;;;;;5.22;84.70;100374.16;102206;282;93074;-58
2023/04/02 12:51:52;;;;;;;7.50;5.80;;;;;;;5.30;84.63;100377.91;102192;282;96887;-59
2023/04/02 12:54:28;;;;;;;8.00;5.90;;;;;;;5.27;84.91;100375.36;102099;282;117348;-58
2023/04/02 12:57:34;;;;;;;7.60;5.70;;;;;;;5.28;84.71;100382.63;102204;282;106376;-55
2023/04/02 13:00:37;;;;;;;5.80;4.90;;;;;;;5.25;84.59;100388.61;102182;282;113402;-54